»·PEaware :: DFGCW KEUL-0ID2

DFGCW :: KEUL-0ID2

FLIGHT INFORMATION

Flight Status: Arrived
Operator: Unknown
More flights by this operator :: More flights under this callsign
Pilot: Klaus A. (15485)
Aircraft: PILATUS PC-12 EAGLE
(PC12)
More flights by this aircraft type
Origin: KEUL Caldwell Industrial
United States
Destination: 0ID2 Flying Joseph Ranch Airport
United States
More flights between these airports :: More routes between these airports
Route: KLLJ
File this flight plan on PilotEdge
Remarks: / L Custom weather
Altitude:
(Current/Filed)
13,500ft
Speed:
(Current/Filed)
230kts
Departed: 22-Aug-18 07:35 AM
Arrived: 22-Aug-18 08:17 AM
Distance/Time
Traveled:
133nm/0:42
Distance/Time
To Go:
Arrived

Flight Plot

Page will automatically refresh every two minutes.

Flight plan parsing failed; only flown route is shown


Map Options




Map Legend


Flown Route
Filed Route
Departure Airport
Arrival Airport
Navaid (VOR, NDB)
Fix

Horizontal Profiles

Position Reports

Time Latitude Longitude Heading Altitude Ground
Speed
22-Aug-18 07:27 43.642434 -116.641948 44 2436ft 0kts
22-Aug-18 07:28 43.642434 -116.641948 44 2436ft 0kts
22-Aug-18 07:29 43.642435 -116.641947 44 2436ft 0kts
22-Aug-18 07:30 43.642776 -116.640413 311 2436ft 4kts
22-Aug-18 07:31 43.642336 -116.638518 134 2436ft 15kts
22-Aug-18 07:32 43.638239 -116.632945 131 2437ft 24kts
22-Aug-18 07:33 43.635980 -116.629307 41 2437ft 0kts
22-Aug-18 07:34 43.635980 -116.629307 41 2437ft 0kts
22-Aug-18 07:35 43.636045 -116.629227 41 2437ft 0kts
22-Aug-18 07:36 43.638128 -116.630673 313 2437ft 61kts
22-Aug-18 07:37 43.659055 -116.662706 314 4084ft 137kts
22-Aug-18 07:38 43.693896 -116.675750 37 6138ft 166kts
22-Aug-18 07:39 43.710548 -116.615467 57 8121ft 180kts
22-Aug-18 07:40 43.733767 -116.553107 61 9927ft 186kts
22-Aug-18 07:41 43.757375 -116.487512 62 11647ft 197kts
22-Aug-18 07:42 43.781663 -116.418612 63 13367ft 203kts
22-Aug-18 07:43 43.804674 -116.352878 63 13523ft 251kts
22-Aug-18 07:44 43.841320 -116.248084 64 13521ft 271kts
22-Aug-18 07:45 43.874552 -116.152683 64 13520ft 277kts
22-Aug-18 07:46 43.902397 -116.072469 64 13520ft 278kts
22-Aug-18 07:47 43.941506 -115.959408 64 13521ft 281kts
22-Aug-18 07:48 43.969590 -115.877931 64 13520ft 282kts
22-Aug-18 07:49 44.009061 -115.763003 64 13521ft 283kts
22-Aug-18 07:50 44.036971 -115.681441 64 13671ft 278kts
22-Aug-18 07:51 44.070326 -115.583636 64 13695ft 281kts
22-Aug-18 07:52 44.108702 -115.470679 64 13693ft 282kts
22-Aug-18 07:53 44.136572 -115.388347 64 13693ft 282kts
22-Aug-18 07:54 44.169506 -115.290722 65 13691ft 282kts
22-Aug-18 07:55 44.202783 -115.191728 65 13514ft 285kts
22-Aug-18 07:56 44.235996 -115.092544 65 13500ft 280kts
22-Aug-18 07:57 44.268841 -114.994139 66 13501ft 281kts
22-Aug-18 07:58 44.301924 -114.894570 65 13501ft 283kts
22-Aug-18 07:59 44.334951 -114.794841 65 13501ft 284kts
22-Aug-18 08:00 44.367966 -114.694768 65 13501ft 283kts
22-Aug-18 08:01 44.400805 -114.594855 65 13449ft 284kts
22-Aug-18 08:02 44.433506 -114.494987 65 13498ft 282kts
22-Aug-18 08:03 44.464649 -114.399635 67 13478ft 237kts
22-Aug-18 08:04 44.491215 -114.317810 67 12342ft 233kts
22-Aug-18 08:05 44.517676 -114.236218 67 11141ft 228kts
22-Aug-18 08:06 44.512620 -114.154085 103 10484ft 196kts
22-Aug-18 08:07 44.511118 -114.084256 94 10489ft 164kts
22-Aug-18 08:08 44.515057 -114.018617 79 10169ft 184kts
22-Aug-18 08:09 44.527602 -113.944371 90 9590ft 203kts
22-Aug-18 08:10 44.503780 -113.874757 127 8753ft 200kts
22-Aug-18 08:11 44.487307 -113.801768 97 8052ft 198kts
22-Aug-18 08:12 44.485483 -113.725904 92 7434ft 194kts
22-Aug-18 08:13 44.452382 -113.687398 214 7127ft 157kts
22-Aug-18 08:14 44.461990 -113.735786 311 6774ft 152kts
22-Aug-18 08:15 44.487139 -113.775233 317 6793ft 115kts
22-Aug-18 08:16 44.478844 -113.807054 198 6384ft 125kts
22-Aug-18 08:17 44.451453 -113.791750 106 5720ft 90kts
22-Aug-18 08:18 44.442327 -113.772205 125 5606ft 26kts
22-Aug-18 08:19 44.440580 -113.770443 214 5605ft 0kts
22-Aug-18 08:20 44.440580 -113.770443 214 5605ft 0kts
22-Aug-18 08:21 44.440580 -113.770443 214 5605ft 0kts
22-Aug-18 08:22 44.440580 -113.770443 214 5605ft 0kts
22-Aug-18 08:23 44.440580 -113.770443 214 5605ft 0kts
22-Aug-18 08:24 44.440580 -113.770443 214 5605ft 0kts
22-Aug-18 08:25 44.440580 -113.770443 214 5605ft 0kts
22-Aug-18 08:26 44.440580 -113.770443 214 5605ft 0kts
22-Aug-18 08:27 44.440580 -113.770443 214 5605ft 0kts
22-Aug-18 08:28 44.440580 -113.770443 214 5605ft 0kts
22-Aug-18 08:29 44.440580 -113.770443 214 5605ft 0kts
22-Aug-18 08:30 44.440580 -113.770443 214 5605ft 0kts
22-Aug-18 08:31 44.440580 -113.770443 214 5605ft 0kts
22-Aug-18 08:32 44.440580 -113.770443 214 5605ft 0kts

Navigation Log

Ident Type
Flight plan parsing failed, navigation log unavailable